Tiempo atmosférico en la estación meteorológica de Estepona, Málaga (15 m.)



Fecha
DESCASC
Temp. máxima en grados centígrados (hora)
DESCASC
Temp. mínima en grados centígrados (hora)
DESCASC
Temp. media en grados centígrados
DESCASC
Racha de viento máxima en m/sg (hora)
DESCASC
Velocidad máxima media en intervalos de 10 minutos(hora)
DESCASC
Precipitaciones diarias en mm
DESCASC
Precipitaciones de 00:00 a 06:00 en mm
DESCASC
Precipitaciones de 06:00 a 12:00 en mm
DESCASC
Precipitaciones de 12:00 a 18:00 en mm
DESCASC
Precipitaciones de 18:00 a 24:00 en mm
DESCASC
29-03-2020 20.5 (16:30) 12.1 (07:40) 16.3 5.56 (06:10) 2.5 (00:20) 0 0 0 0 0
28-03-2020 17.7 (13:00) 11.4 (06:30) 14.6 -- (--) -- (--) 0 0 0 0 0
27-03-2020 21.8 (14:30) 10.5 (07:10) 16.1 -- (--) -- (--) 0 0 0 0 0
26-03-2020 23.2 (14:20) 9.4 (00:00) 16.3 -- (--) -- (--) 0 0 0 0 0
25-03-2020 16.4 (16:40) 11 (00:00) 13.7 8.89 (12:20) 5.28 (12:30) 12.8 2.4 10.4 0 0
24-03-2020 16.3 (12:20) 12.6 (00:00) 14.4 6.11 (00:10) 3.61 (14:30) 15.2 2 10.6 1.6 1
23-03-2020 16.7 (13:30) 11 (00:00) 13.9 12.22 (13:30) 8.06 (13:00) 0.4 0 0.2 0.2 0
22-03-2020 18.3 (14:30) 9.9 (07:30) 14.1 4.17 (15:20) 2.22 (15:20) 5.4 4.4 0 1 0
21-03-2020 17.1 (13:00) 10.4 (00:00) 13.8 -- (--) -- (--) 59.8 44.4 0.2 11.6 3.6
20-03-2020 17.4 (16:30) 14.3 (00:00) 15.8 13.33 (00:40) 8.33 (00:40) 9.2 0 0.2 0 9
19-03-2020 17.5 (17:00) 15.6 (00:00) 16.6 12.22 (00:20) 7.5 (18:30) 0 0 0 0 0
18-03-2020 18.8 (15:10) 15.7 (00:00) 17.2 19.44 (01:00) 12.22 (01:00) 0.2 0.2 0 0 0
17-03-2020 17 (15:00) 9.1 (00:00) 13.1 16.67 (14:40) 10 (14:40) 19 1.4 15.6 1 1
16-03-2020 19.2 (14:30) 13.2 (00:00) 16.2 17.78 (13:30) 8.33 (13:30) 0 0 0 0 0
15-03-2020 19 (13:00) 13.5 (00:00) 16.3 9.17 (13:50) 5 (11:40) 0 0 0 0 0
14-03-2020 20 (13:20) 13.9 (00:00) 16.9 6.11 (13:20) 3.89 (13:30) 0 0 0 0 0
13-03-2020 26.8 (16:40) 12.3 (07:50) 19.5 8.89 (16:00) 5 (13:20) 0 0 0 0 0
12-03-2020 25.3 (15:50) 14.4 (00:00) 19.8 5.83 (03:30) 3.06 (03:00) 0 0 0 0 0
11-03-2020 22.8 (17:10) 14.5 (00:00) 18.6 10.28 (14:00) 6.67 (14:00) 0 0 0 0 0
10-03-2020 22.1 (13:20) 13 (00:00) 17.6 11.39 (14:10) 6.94 (14:10) 0 0 0 0 0
09-03-2020 21.7 (11:30) 11.6 (00:00) 16.7 5 (04:30) 2.78 (15:30) 0 0 0 0 0
08-03-2020 21.2 (14:50) 10.6 (00:00) 15.9 5.83 (05:00) 2.5 (05:00) 0 0 0 0 0
07-03-2020 21.4 (14:40) 10.5 (00:00) 15.9 5.28 (02:10) 3.06 (13:30) 0 0 0 0 0
06-03-2020 21 (15:00) 10.7 (00:00) 15.8 16.67 (14:30) 7.78 (12:00) 0 0 0 0 0
05-03-2020 -- (--) -- (--) -- -- (--) -- (--) -- -- -- -- 0
04-03-2020 -- (--) -- (--) -- -- (--) -- (--) -- -- -- -- --
03-03-2020 -- (--) -- (--) -- -- (--) -- (--) -- -- -- -- --
02-03-2020 -- (--) -- (--) -- -- (--) -- (--) -- -- -- -- --
01-03-2020 -- (--) -- (--) -- -- (--) -- (--) -- 0 0 0 --
29-02-2020 21.8 (15:00) 9.9 (00:00) 15.8 18.06 (15:20) 8.61 (15:30) 0 0 0 0 0

Gráficas

Temp. máximas Temp. mínimas Temp. medias Precipitaciones Rachas de viento máximas Velocidades máximas media en intervalos de 10 minutos

Datos horarios

Fecha y hora oficial Temperatura (ºC) Velocidad del viento (km/h) Dirección del viento Racha (km/h) Dirección de racha Precipitación (mm) Presión (hPa) Tendencia (hPa) Humedad (%)
2020-03-29 23:00:00 14.9 5 Oeste 10 Sudoeste 0 1016.2 0.1 72
2020-03-29 22:00:00 15.1 7 Sudoeste 14 Sudoeste 0 1016.2 0.2 71
2020-03-29 21:00:00 15.4 9 Sudoeste 13 Sudoeste 0 1015.9 -0.1 69
2020-03-29 20:00:00 16.5 7 Sudoeste 12 Sudoeste 0 1016.1 -0.4 63
2020-03-29 19:00:00 17.5 7 Sudoeste 15 Sudoeste 0 1016 -1.1 61
2020-03-29 18:00:00 18.9 5 Sur 10 Sudoeste 0 1016 -1.8 54
2020-03-29 17:00:00 19.6 5 Sur 13 Sudeste 0 1016.5 -1.8 54
2020-03-29 16:00:00 20.3 6 Sur 13 Sur 0 1017.1 -1.6 52
2020-03-29 15:00:00 19.4 6 Sur 13 Sur 0 1017.8 -1.3 55
2020-03-29 14:00:00 19.3 5 Sur 12 Sur 0 1018.3 -0.6 54
2020-03-29 13:00:00 19 5 Sudeste 10 Sur 0 1018.7 0.2 55
2020-03-29 12:00:00 18 4 Sudeste 9 Sudeste 0 1019.1 0.8 56
2020-03-29 11:00:00 17.2 4 Sudeste 11 Este 0 1018.9 1.1 58
2020-03-29 10:00:00 15.4 5 Nordeste 11 Este 0 1018.5 1 64
2020-03-29 09:00:00 12.5 2 Norte -- -- 0 1018.3 0.5 70
2020-03-29 08:00:00 12.1 3 Norte 20 Nordeste 0 1017.8 -0.4 70
2020-03-29 07:00:00 12.2 7 Nordeste 20 Nordeste 0 1017.5 -1.1 71
2020-03-29 06:00:00 12.3 8 Nordeste 17 Nordeste 0 1017.8 -1.5 70
2020-03-29 05:00:00 12.6 9 Nordeste 18 Nordeste 0 1018.2 -1.4 69
2020-03-29 03:00:00 13.3 8 Nordeste 18 Nordeste 0 1019.3 -0.1 70
2020-03-29 01:00:00 13 6 Nordeste 18 Nordeste 0 1019.6 0.4 70
2020-03-29 00:00:00 12.8 8 Nordeste 18 Nordeste 0 1019.7 1.4 71
2020-03-28 23:00:00 13.1 9 Nordeste 18 Nordeste 0 1019.4 1.9 71
2020-03-28 22:00:00 13.9 8 Nordeste 27 Este 0 1019.2 2.2 70
2020-03-28 21:00:00 14.5 18 Este 30 Este 0 1018.3 1.6 69
2020-03-28 20:00:00 14.6 17 Este 27 Este 0 1017.5 1.1 70
2020-03-28 19:00:00 14.9 18 Este 30 Este 0 1017 0.6 68
2020-03-28 18:00:00 14.9 19 Este 29 Este 0 1016.7 0.3 68
2020-03-28 17:00:00 14.9 17 Este 31 Este 0 1016.4 0 69
2020-03-28 16:00:00 14.6 21 Este 40 Este 0 1016.4 0.3 73
2020-03-28 15:00:00 14.4 21 Este 40 Este 0 1016.4 0.5 73
2020-03-28 14:00:00 14.9 26 Este 44 Este 0 1016.4 0.7 73
2020-03-28 13:00:00 16.9 22 Este 41 Este 0 1016.1 0.8 66
2020-03-28 12:00:00 17.3 19 Este 33 Este 0 1015.9 1.4 67
2020-03-28 11:00:00 17 23 Este 33 Este 0 1015.7 1.9 68
2020-03-28 10:00:00 16.2 13 Este 19 Este 0 1015.3 2.1 70
2020-03-28 09:00:00 14.7 3 Sudeste 5 Noroeste 0 1014.5 1.9 77
2020-03-28 08:00:00 12.1 2 Noroeste 6 Noroeste 0 1013.8 1.7 79
2020-03-28 07:00:00 11.9 0 Calma 5 Oeste 0 1013.2 1.1 79
2020-03-28 06:00:00 11.6 3 Noroeste -- -- 0 1012.6 0.4 76
2020-03-28 05:00:00 12.5 -- -- -- -- 0 1012.1 -0.2 76
2020-03-28 04:00:00 12.6 0 Calma 5 Noroeste 0 1012.1 -0.2 74
2020-03-28 03:00:00 13.6 -- -- -- -- 0 1012.2 -0.1 72
2020-03-28 02:00:00 14.6 4 Este -- -- 0 1012.3 0.3 70
2020-03-28 01:00:00 14.4 4 Nordeste -- -- 0 1012.3 0.8 70
2020-03-28 00:00:00 14.2 4 Nordeste -- -- 0 1012.3 1.5 73
2020-03-27 23:00:00 14.2 8 Nordeste -- -- 0 1012 2.1 75
2020-03-27 22:00:00 14.5 8 Nordeste 18 Nordeste 0 1011.5 2 74
2020-03-27 21:00:00 15 7 Nordeste -- -- 0 1010.8 2.2 74
2020-03-27 20:00:00 15.5 9 Nordeste -- -- 0 1009.9 1.6 71
2020-03-27 19:00:00 17.1 -- -- -- -- 0 1009.5 1 61
2020-03-27 18:00:00 21.1 14 Sudoeste 24 Sudoeste 0 1008.6 -0.2 38
2020-03-27 17:00:00 21.5 10 Sudoeste 20 Sudoeste 0 1008.3 -1 45
2020-03-27 16:00:00 19.6 10 Sur 26 Sudoeste 0 1008.5 -1.3 59
2020-03-27 15:00:00 20.8 13 Sudoeste 37 Sudoeste 0 1008.8 -1.4 51
2020-03-27 14:00:00 20.9 14 Oeste 35 Oeste 0 1009.3 -0.9 38
2020-03-27 13:00:00 18.4 14 Oeste 32 Oeste 0 1009.8 -0.1 50
2020-03-27 12:00:00 17.6 12 Oeste 27 Oeste 0 1010.2 0.8 54
2020-03-27 11:00:00 18 13 Sudoeste 22 Sudoeste 0 1010.2 1.3 60
2020-03-27 10:00:00 16.7 9 Sudoeste 15 Sudoeste 0 1009.9 1.5 65
2020-03-27 09:00:00 13.8 6 Sudoeste 11 Oeste 0 1009.4 1.3 66
2020-03-27 08:00:00 11.5 3 Noroeste -- -- 0 1008.9 1 68
2020-03-27 07:00:00 10.6 -- -- -- -- 0 1008.4 0.7 68
2020-03-27 06:00:00 10.9 -- -- -- -- 0 1008.1 -0.2 73
2020-03-27 05:00:00 11.3 -- -- -- -- 0 1007.9 -0.9 72
2020-03-27 04:00:00 12.2 -- -- -- -- 0 1007.7 -1.4 71
2020-03-27 03:00:00 12.9 3 Este -- -- 0 1008.3 -1.2 69
2020-03-27 02:00:00 13.8 -- -- -- -- 0 1008.8 -1 69
2020-03-27 01:00:00 14 9 Sudoeste -- -- 0 1009.1 -0.6 68
2020-03-27 00:00:00 14.4 -- -- -- -- 0 1009.5 0.1 64
2020-03-26 23:00:00 14.5 -- -- -- -- 0 1009.8 0.9 65
2020-03-26 22:00:00 15.5 10 Sudoeste 24 Sudoeste 0 1009.7 1.4 63
2020-03-26 21:00:00 16.2 15 Oeste 30 Oeste 0 1009.4 1.3 58
2020-03-26 20:00:00 17.4 17 Sudoeste 33 Sudoeste 0 1008.9 0.8 55
2020-03-26 19:00:00 20 17 Oeste -- -- 0 1008.3 0 41
2020-03-26 18:00:00 21.8 -- -- -- -- 0 1008.1 -0.4 32
2020-03-26 17:00:00 21.9 -- -- -- -- 0 1008.1 -1.2 38
2020-03-26 16:00:00 22.3 -- -- -- -- 0 1008.3 -1.8 38
2020-03-26 15:00:00 22.4 25 Oeste -- -- 0 1008.5 -1.7 36
2020-03-26 14:00:00 22.6 -- -- -- -- 0 1009.3 -1.3 34
2020-03-26 13:00:00 21.5 -- -- -- -- 0 1010.1 -0.7 42
2020-03-26 12:00:00 20.5 -- -- -- -- 0 1010.2 -0.8 44
2020-03-26 11:00:00 19.2 -- -- -- -- 0 1010.6 -1.1 52
2020-03-26 10:00:00 16.5 4 Noroeste 13 Nordeste 0 1010.8 -1 65
2020-03-26 09:00:00 12.9 4 Norte 9 Este 0 1011 -1.1 74
2020-03-26 08:00:00 10.5 2 Noroeste 8 Noroeste 0 1011.7 -0.8 78
2020-03-26 07:00:00 10.2 4 Noroeste 7 Noroeste 0 1011.8 -1.3 78
2020-03-26 06:00:00 9.5 2 Noroeste 9 Nordeste 0 1012.1 -1.9 79
2020-03-26 05:00:00 9.5 0 Calma 6 Noroeste 0 1012.5 -2.2 79
2020-03-26 04:00:00 9.9 3 Norte 6 Nordeste 0 1013.1 -2 78
2020-03-26 03:00:00 9.9 3 Sudoeste 5 Nordeste 0 1014 -1.5 77
2020-03-26 02:00:00 10.3 3 Oeste 6 Noroeste 0 1014.7 -1.2 74
2020-03-26 01:00:00 10.7 3 Noroeste 6 Noroeste 0 1015.1 -1.2 73
2020-03-26 00:00:00 11.3 4 Norte 7 Norte 0 1015.5 -0.7 69
2020-03-25 23:00:00 11.2 2 Norte 6 Noroeste 0 1015.9 0.2 71
2020-03-25 22:00:00 11.8 2 Oeste 6 Noroeste 0 1016.3 0.7 71
2020-03-25 21:00:00 12.6 0 Calma 6 Noroeste 0 1016.2 0.5 68
2020-03-25 20:00:00 13.7 4 Este 8 Este 0 1015.7 -0.1 64
2020-03-25 19:00:00 15.3 5 Este 12 Este 0 1015.6 -0.6 57
2020-03-25 18:00:00 16 9 Este 16 Este 0 1015.7 -0.8 56
2020-03-25 17:00:00 15.9 10 Este 18 Este 0 1015.8 -1.1 60
2020-03-25 16:00:00 16 9 Este 21 Este 0 1016.2 -1.2 59
2020-03-25 15:00:00 15.2 12 Este 22 Este 0 1016.5 -0.7 63
2020-03-25 14:00:00 15.2 7 Nordeste 20 Nordeste 0 1016.9 -0.1 67
2020-03-25 13:00:00 13.6 12 Este 32 Este 0 1017.4 0.6 72
2020-03-25 12:00:00 14.9 8 Nordeste 17 Este 0 1017.2 0.8 70
2020-03-25 11:00:00 13.9 4 Nordeste 14 Nordeste 0 1017 1 78
2020-03-25 10:00:00 12.8 5 Nordeste 13 Nordeste 0 1016.8 1.5 81
2020-03-25 09:00:00 12.4 6 Nordeste 14 Nordeste 0.4 1016.4 2.2 83
2020-03-25 08:00:00 12.5 5 Nordeste 16 Nordeste 2.8 1016 2.1 83
2020-03-25 07:00:00 13.2 5 Nordeste 28 Este 7.2 1015.3 1.7 82
2020-03-25 06:00:00 13.7 8 Sudeste 16 Sudeste 0.8 1014.2 0.6 82
2020-03-25 05:00:00 13.9 2 Sudoeste 7 Oeste 1.4 1013.9 0.3 81
2020-03-25 04:00:00 14.2 3 Sur 7 Sudeste 0.2 1013.6 0.1 80
2020-03-25 03:00:00 14 3 Oeste 7 Noroeste 0 1013.6 0.3 80
2020-03-25 02:00:00 14 3 Oeste 5 Norte 0 1013.6 0.4 81
2020-03-25 01:00:00 14 3 Oeste 9 Oeste 0 1013.5 0.9 80
2020-03-25 00:00:00 14.2 4 Oeste 9 Oeste 0 1013.3 1.6 80
2020-03-24 23:00:00 14.4 2 Noroeste 8 Oeste 0.8 1013.2 2.6 79
2020-03-24 22:00:00 14.8 3 Sudoeste 9 Sudoeste 0 1012.6 3 77
2020-03-24 21:00:00 14.8 3 Sur 8 Sur 0.2 1011.7 2.9 76
2020-03-24 20:00:00 15.1 2 Sur 12 Oeste 0 1010.6 2.1 71
2020-03-24 19:00:00 15.2 6 Oeste 11 Oeste 0 1009.6 1.1 78
2020-03-24 18:00:00 15.2 2 Oeste 13 Oeste 0 1008.8 0.4 78
2020-03-24 17:00:00 14.8 8 Oeste 20 Sudoeste 0 1008.5 0 77
2020-03-24 16:00:00 15 10 Sudoeste 17 Oeste 0 1008.5 0.3 78
2020-03-24 15:00:00 15.1 10 Oeste 21 Sudoeste 0.6 1008.4 0.6 79
2020-03-24 14:00:00 15.3 11 Oeste -- -- 1 1008.5 0.9 78
2020-03-24 13:00:00 16.1 5 Sudoeste 12 Oeste 0 1008.2 1 72
2020-03-24 12:00:00 15.5 5 Oeste 12 Oeste 0 1007.8 0.8 79
2020-03-24 11:00:00 14.2 8 Sudoeste 12 Sudoeste 0.4 1007.6 0.2 82
2020-03-24 10:00:00 13.7 4 Norte 10 Sudoeste 1.2 1007.2 0.4 82
2020-03-24 09:00:00 13.2 4 Oeste 18 Oeste 1.6 1007 0.8 81
2020-03-24 08:00:00 13 7 Oeste 13 Oeste 6.2 1007.4 1.4 79
2020-03-24 07:00:00 13 4 Sudoeste 15 Oeste 1.2 1006.8 0.5 76
2020-03-24 06:00:00 13 2 Sur 8 Nordeste 0 1006.2 -1 73
2020-03-24 05:00:00 12.9 3 Oeste 7 Oeste 0 1006 -1.8 70
2020-03-24 04:00:00 13.2 2 Noroeste 9 Oeste 0 1006.3 -2.5 68
2020-03-24 03:00:00 13.2 5 Oeste 10 Oeste 0 1007.2 -2.2 72
2020-03-24 02:00:00 13.2 3 Noroeste 8 Oeste 0 1007.8 -1.3 71
2020-03-24 01:00:00 14.5 2 Norte 22 Este 2 1008.8 -0.4 67
2020-03-24 00:00:00 15.9 12 Este 28 Este 0 1009.4 0.1 56
2020-03-23 23:00:00 15.2 5 Nordeste 20 Nordeste 0 1009.1 -0.5 52
2020-03-23 22:00:00 14.4 8 Nordeste 16 Nordeste 0 1009.2 -0.3 58
2020-03-23 21:00:00 13.1 6 Nordeste 13 Este 0 1009.3 -0.4 72
2020-03-23 20:00:00 13.6 9 Nordeste 18 Nordeste 0 1009.6 -0.1 73
2020-03-23 19:00:00 13.9 9 Nordeste 21 Nordeste 0 1009.5 -0.5 69
2020-03-23 18:00:00 14.3 10 Nordeste 30 Este 0.2 1009.7 -0.5 68
2020-03-23 17:00:00 14.4 17 Este 39 Este 0 1009.7 -1 67
2020-03-23 16:00:00 15 26 Este 43 Este 0 1010 -1.4 64
2020-03-23 15:00:00 15.4 28 Este 43 Este 0 1010.2 -1.6 59
2020-03-23 14:00:00 16.3 25 Este 44 Este 0 1010.7 -1.1 61
2020-03-23 13:00:00 15.7 29 Este 43 Este 0 1011.4 -0.6 67
2020-03-23 12:00:00 16 13 Este 23 Este 0 1011.8 0.1 58
2020-03-23 11:00:00 14.5 10 Nordeste 21 Nordeste 0.2 1011.8 0.2 67
2020-03-23 10:00:00 13.8 9 Nordeste 19 Nordeste 0 1012 0.9 67
2020-03-23 09:00:00 13.6 7 Nordeste 16 Norte 0 1011.7 0.8 67
2020-03-23 08:00:00 11.5 3 Norte 12 Nordeste 0 1011.6 0.7 73
2020-03-23 07:00:00 11.1 2 Noroeste 10 Nordeste 0 1011.1 0.2 75
2020-03-23 06:00:00 11.1 4 Norte 12 Nordeste 0 1010.9 -0.6 75
2020-03-23 05:00:00 11.1 2 Norte 8 Nordeste 0 1010.9 -0.7 75
2020-03-23 04:00:00 11.2 3 Noroeste 10 Nordeste 0 1010.9 -1 73
2020-03-23 03:00:00 11.3 4 Norte 12 Nordeste 0 1011.5 -0.8 73
2020-03-23 02:00:00 11.4 2 Noroeste 8 Norte 0 1011.6 -0.8 73
2020-03-23 01:00:00 11.5 2 Noroeste 7 Noroeste 0 1011.9 -0.3 73
2020-03-23 00:00:00 12 2 Norte 10 Nordeste 0 1012.3 0.5 73
2020-03-22 23:00:00 12.9 5 Nordeste 12 Nordeste 0 1012.4 1.2 73
2020-03-22 22:00:00 13 5 Nordeste 12 Nordeste 0 1012.2 1.3 74
2020-03-22 21:00:00 12.9 5 Nordeste 13 Nordeste 0 1011.8 1.6 75
2020-03-22 20:00:00 13.2 6 Nordeste 12 Nordeste 0 1011.2 1.2 73
2020-03-22 19:00:00 14.5 4 Este 8 Este 0 1010.9 1 69
2020-03-22 18:00:00 14.8 4 Este 9 Este 0.4 1010.2 0 69
2020-03-22 17:00:00 16.3 4 Sur 8 Sur 0 1010 -0.5 61
2020-03-22 16:00:00 16.5 5 Sudoeste 15 Sudoeste 0.4 1009.9 -0.8 62
2020-03-22 15:00:00 16.5 6 Sudoeste 14 Sur 0.2 1010.2 -1 62
2020-03-22 14:00:00 17.3 6 Sur 13 Sudeste 0 1010.5 -0.6 62
2020-03-22 13:00:00 17.9 5 Sur 12 Sur 0 1010.7 0 60
2020-03-22 12:00:00 16.4 6 Sur 12 Sudeste 0 1011.2 0.9 64
2020-03-22 11:00:00 15 5 Sudeste 13 Nordeste 0 1011.1 1.3 70
2020-03-22 10:00:00 12.8 8 Nordeste 13 Este 0 1010.7 1.2 83
2020-03-22 09:00:00 11.1 2 Norte 5 Nordeste 0 1010.3 1 85
2020-03-22 08:00:00 10.2 2 Noroeste 6 Nordeste 0 1009.8 0.4 85
2020-03-22 07:00:00 10 0 Calma 8 Nordeste 0 1009.5 -0.1 85
2020-03-22 06:00:00 10.5 3 Nordeste 8 Nordeste 0 1009.3 -0.5 85
2020-03-22 05:00:00 10.9 2 Norte 5 Nordeste 0 1009.4 -1 85
2020-03-22 04:00:00 10.9 2 Nordeste 7 Nordeste 0 1009.6 -0.8 85
2020-03-22 03:00:00 10.8 3 Nordeste 10 Sur 1.4 1009.8 -1.5 85
2020-03-22 02:00:00 11.4 7 Sudeste 11 Sudeste 0.8 1010.4 -1 85
2020-03-22 01:00:00 11.4 3 Nordeste 8 Sudoeste 2.2 1010.4 -1.1 84
2020-03-22 00:00:00 12 0 Calma 10 Nordeste 3 1011.3 0.2 84
2020-03-21 23:00:00 11.8 2 Norte 9 Nordeste 0 1011.4 0.6 83
2020-03-21 22:00:00 11.7 3 Nordeste 13 Nordeste 0 1011.5 0.6 82
2020-03-21 21:00:00 11.9 5 Nordeste 9 Noroeste 0 1011.1 0.4 81
2020-03-21 20:00:00 11.9 5 Oeste 10 Noroeste 0 1010.8 0.1 81
2020-03-21 19:00:00 12.6 6 Oeste 20 Oeste 0.6 1010.9 -0.5 81
2020-03-21 18:00:00 12.4 4 Oeste 12 Sudoeste 1.4 1010.7 -1 82
2020-03-21 17:00:00 12.4 6 Oeste -- -- 3.4 1010.7 -1.2 81
2020-03-21 16:00:00 12.9 -- -- -- -- 4.4 1011.4 -1.2 77
2020-03-21 15:00:00 14.5 -- -- -- -- 1 1011.7 -1.7 67
2020-03-21 14:00:00 15.9 4 Sudoeste 11 Noroeste 1 1011.9 -1.9 61
2020-03-21 13:00:00 16.9 6 Sur 22 Sur 0.4 1012.6 -0.9 63
2020-03-21 12:00:00 15.9 11 Sudoeste 21 Sur 0 1013.4 0 65
2020-03-21 11:00:00 15.2 12 Sudoeste -- -- 0.2 1013.8 0.7 67
2020-03-21 10:00:00 14.5 -- -- -- -- 0 1013.5 0.7 72
2020-03-21 09:00:00 12.6 7 Oeste 13 Oeste 0 1013.4 1 77
2020-03-21 08:00:00 10.7 7 Oeste 15 Oeste 0 1013.1 1.1 78
2020-03-21 07:00:00 10.7 7 Oeste 15 Sudoeste 0 1012.8 1 80
2020-03-21 06:00:00 11.4 8 Oeste -- -- 0 1012.4 0.1 80
2020-03-21 05:00:00 11.2 6 Oeste 17 Oeste 0 1012 -1.1 83
2020-03-21 04:00:00 11.7 8 Oeste -- -- 0 1011.8 -0.9 85
2020-03-21 03:00:00 12.3 -- -- -- -- 4.6 1012.3 -0.9 86
2020-03-21 02:00:00 13 -- -- -- -- 22.8 1013.1 -0.3 86
2020-03-21 01:00:00 15.1 19 Sudeste 44 Este 17 1012.7 -0.8 86
2020-03-21 00:00:00 15.1 21 Sudeste 36 Sudeste 6.6 1013.2 0 85
2020-03-20 23:00:00 15.2 21 Este 36 Este 1.6 1013.4 0 84
2020-03-20 22:00:00 15.1 22 Este 37 Este 0.4 1013.5 0.1 82
2020-03-20 21:00:00 15.2 18 Este 32 Nordeste 0.2 1013.2 0.4 81
2020-03-20 20:00:00 15.4 16 Este 31 Este 0.2 1013.4 0.2 77
2020-03-20 19:00:00 15.8 19 Este 29 Este 0 1013.4 0.2 73
2020-03-20 18:00:00 16.4 9 Este 15 Este 0 1012.8 -0.9 65
2020-03-20 17:00:00 17 6 Este 17 Nordeste 0 1013.2 -1.5 61
2020-03-20 16:00:00 17.1 8 Este 21 Nordeste 0 1013.2 -1.9 62
2020-03-20 15:00:00 16.1 11 Nordeste 24 Este 0 1013.7 -1.6 69
2020-03-20 14:00:00 15.8 16 Este 30 Este 0 1014.7 -0.7 71
2020-03-20 13:00:00 15.8 18 Este 35 Este 0 1015.1 -0.1 71
2020-03-20 12:00:00 15.7 19 Este 32 Este 0 1015.3 0.4 73
2020-03-20 11:00:00 14.5 7 Nordeste 24 Nordeste 0.2 1015.4 1.1 77
2020-03-20 10:00:00 14.5 10 Nordeste 35 Este 0 1015.2 1.1 75
2020-03-20 09:00:00 15.1 21 Este 36 Este 0 1014.9 0.7 72
2020-03-20 08:00:00 15 8 Nordeste 21 Nordeste 0 1014.3 0.2 68
2020-03-20 07:00:00 15.2 10 Nordeste 28 Nordeste 0 1014.1 0.2 68
2020-03-20 06:00:00 15 10 Nordeste 24 Este 0 1014.2 -0.4 66
2020-03-20 05:00:00 14.9 7 Nordeste 21 Nordeste 0 1014.1 -1.1 64
2020-03-20 04:00:00 15 9 Nordeste 26 Nordeste 0 1013.9 -2.1 61
2020-03-20 03:00:00 14.8 8 Nordeste 32 Nordeste 0 1014.6 -1.8 67
2020-03-20 02:00:00 15.6 20 Este 38 Este 0 1015.2 -0.9 71
2020-03-20 01:00:00 15.8 28 Este 48 Este 0 1016 -0.3 66
2020-03-20 00:00:00 15.7 24 Este 41 Este 0 1016.4 0.1 71
2020-03-19 23:00:00 15.7 18 Nordeste 33 Este 0 1016.1 0.7 73
2020-03-19 22:00:00 15.7 17 Nordeste 33 Nordeste 0 1016.3 1.1 73
2020-03-19 21:00:00 15.8 17 Nordeste 32 Este 0 1016.3 1.5 72
2020-03-19 20:00:00 16 22 Este 39 Este 0 1015.4 0 69
2020-03-19 19:00:00 16.3 25 Este 43 Este 0 1015.2 -0.7 68
2020-03-19 18:00:00 16.7 21 Nordeste 36 Nordeste 0 1014.8 -2 68
2020-03-19 17:00:00 17.5 18 Este 31 Nordeste 0 1015.4 -2 64
2020-03-19 16:00:00 16.7 10 Nordeste 30 Este 0 1015.9 -2.2 65
2020-03-19 15:00:00 16.4 12 Nordeste 31 Este 0 1016.8 -1.6 66
2020-03-19 14:00:00 16.5 13 Nordeste 36 Este 0 1017.4 -1.2 66
2020-03-19 13:00:00 16.5 15 Nordeste 40 Nordeste 0 1018.1 -0.2 66
2020-03-19 12:00:00 16.8 19 Nordeste 40 Este 0 1018.4 0.7 63
2020-03-19 11:00:00 17.2 19 Nordeste 41 Este 0 1018.6 1.3 63
2020-03-19 10:00:00 16.3 14 Nordeste 33 Este 0 1018.3 0.6 65
2020-03-19 09:00:00 15.9 14 Nordeste 33 Nordeste 0 1017.7 -0.6 64
2020-03-19 08:00:00 15.7 14 Nordeste 33 Nordeste 0 1017.3 -1 65
2020-03-19 07:00:00 15.8 13 Nordeste 30 Nordeste 0 1017.7 -1 65
2020-03-19 06:00:00 15.6 8 Nordeste 24 Nordeste 0 1018.3 -1 69
2020-03-19 05:00:00 15.8 10 Nordeste 28 Este 0 1018.3 -1.6 70
2020-03-19 04:00:00 15.8 10 Nordeste 31 Nordeste 0 1018.7 -1.2 70
2020-03-19 03:00:00 15.7 11 Nordeste 27 Nordeste 0 1019.3 -0.7 71
2020-03-19 02:00:00 15.7 13 Nordeste 32 Este 0 1019.9 -0.5 74
2020-03-19 01:00:00 15.9 21 Este 44 Este 0 1019.9 -0.1 73
2020-03-19 00:00:00 16 22 Este 44 Este 0 1020 0.5 72
2020-03-18 23:00:00 16.5 23 Este 40 Este 0 1020.4 1.6 68
2020-03-18 22:00:00 16.2 10 Nordeste 29 Este 0 1020 1.8 67
2020-03-18 21:00:00 16 16 Nordeste 36 Este 0 1019.5 1.4 72
2020-03-18 20:00:00 16.4 21 Este 38 Este 0 1018.8 0.4 69
2020-03-18 19:00:00 16.6 23 Este 39 Este 0 1018.2 -0.5 67
2020-03-18 18:00:00 16.9 24 Este 37 Este 0 1018.1 -1 66
2020-03-18 17:00:00 17.6 21 Nordeste 37 Este 0 1018.4 -1.4 63
2020-03-18 16:00:00 18.2 20 Nordeste 42 Este 0 1018.7 -2.2 64
2020-03-18 15:00:00 18.4 23 Nordeste 44 Nordeste 0 1019.1 -1.7 63
2020-03-18 14:00:00 17.8 30 Este 48 Este 0 1019.8 -1.1 66
2020-03-18 13:00:00 16.3 19 Nordeste 50 Este 0 1020.9 0.5 71
2020-03-18 12:00:00 16.2 34 Este 56 Este 0 1020.8 1.2 70
2020-03-18 11:00:00 16.2 35 Este 60 Este 0 1020.9 2 70
2020-03-18 10:00:00 16.3 35 Este 56 Este 0 1020.4 2.1 68
2020-03-18 09:00:00 16.2 31 Este 52 Este 0 1019.6 1.7 70
2020-03-18 08:00:00 16.3 29 Este 50 Este 0 1018.9 1.4 72
2020-03-18 07:00:00 16.4 32 Este 51 Este 0 1018.3 0.7 70
2020-03-18 06:00:00 16.1 18 Este 44 Este 0 1017.9 0.2 75
2020-03-18 05:00:00 16.5 31 Este 57 Este 0 1017.5 -0.2 70
2020-03-18 04:00:00 16.4 27 Este 49 Este 0 1017.6 -0.1 71
2020-03-18 03:00:00 16.2 33 Este 63 Este 0 1017.7 -0.3 73
2020-03-18 02:00:00 16.4 41 Este 62 Este 0 1017.7 -0.1 73
2020-03-18 01:00:00 16.4 44 Este 70 Este 0.2 1017.7 0.3 74
2020-03-18 00:00:00 15.7 24 Este 42 Este 0.6 1018 0.2 76
2020-03-17 23:00:00 15.9 19 Este 42 Este 0 1017.8 0.1 72
2020-03-17 22:00:00 15.5 20 Nordeste 38 Nordeste 0 1017.4 -0.2 71
2020-03-17 21:00:00 14.8 10 Nordeste 32 Nordeste 0 1017.8 0.1 75
2020-03-17 20:00:00 14.4 11 Nordeste 30 Nordeste 0.2 1017.7 0.3 73
2020-03-17 19:00:00 14.9 18 Nordeste 45 Este 0.2 1017.6 0.1 76
2020-03-17 18:00:00 14.6 24 Este 49 Este 0.8 1017.7 0.1 76
2020-03-17 17:00:00 15.3 33 Este 57 Este 0.2 1017.4 -0.7 72
2020-03-17 16:00:00 16 36 Este 55 Este 0 1017.5 -1.1 62
2020-03-17 15:00:00 17 35 Este 60 Este 0 1017.6 -1.1 60
2020-03-17 14:00:00 15.7 34 Este 50 Este 0 1018.1 -0.7 63
2020-03-17 13:00:00 15.4 26 Este 41 Este 0 1018.6 0.5 60
2020-03-17 12:00:00 15.3 21 Nordeste 36 Nordeste 0 1018.7 1.2 57
2020-03-17 11:00:00 12.3 11 Nordeste 26 Nordeste 0 1018.8 0.7 73
2020-03-17 10:00:00 10.6 5 Nordeste 13 Nordeste 0.4 1018.1 0.7 80
2020-03-17 09:00:00 9.4 4 Norte 12 Norte 2 1017.5 0.7 82
2020-03-17 08:00:00 9.1 5 Nordeste 19 Nordeste 5.4 1018.1 2.7 81
2020-03-17 07:00:00 9.2 6 Nordeste 37 Oeste 7.8 1017.4 2.1 77
2020-03-17 06:00:00 10.7 18 Oeste 36 Oeste 1.4 1016.8 1.1 65
2020-03-17 05:00:00 11.4 3 Nordeste 7 Oeste 0 1015.4 -0.2 51
2020-03-17 04:00:00 11.3 3 Este 15 Noroeste 0 1015.3 -0.2 49
2020-03-17 03:00:00 11.8 11 Oeste 26 Sudoeste 0 1015.7 -0.1 49
2020-03-17 02:00:00 11.7 4 Oeste 22 Sudoeste 0 1015.6 -0.1 47
2020-03-17 01:00:00 12 9 Oeste 23 Oeste 0 1015.5 0.2 48
2020-03-17 00:00:00 13.2 4 Este 12 Este 0 1015.8 0.9 38
2020-03-16 23:00:00 14.3 6 Este 19 Oeste 0 1015.7 1.6 38
2020-03-16 22:00:00 14.5 8 Oeste 19 Oeste 0 1015.3 1.8 35
2020-03-16 21:00:00 14.5 9 Oeste 19 Oeste 0 1014.9 2.2 36
2020-03-16 20:00:00 15 8 Oeste 22 Oeste 0 1014.1 1.8 31
2020-03-16 19:00:00 16.5 10 Oeste 35 Oeste 0 1013.5 0.8 27
2020-03-16 18:00:00 16.6 14 Oeste 44 Sudoeste 0 1012.7 -0.5 25
2020-03-16 17:00:00 18.8 28 Oeste 50 Oeste 0 1012.3 -1.2 21
2020-03-16 16:00:00 16.8 24 Oeste 46 Oeste 0 1012.7 -0.2 24
2020-03-16 15:00:00 18.9 11 Oeste 39 Oeste 0 1013.2 -0.3 24
2020-03-16 14:00:00 18.8 20 Oeste 64 Oeste 0 1013.5 -0.3 19
2020-03-16 13:00:00 18.3 28 Oeste 60 Oeste 0 1012.9 -0.4 16
2020-03-16 12:00:00 17.5 22 Oeste 46 Sudoeste 0 1013.5 0.9 23
2020-03-16 11:00:00 17.7 9 Oeste 32 Oeste 0 1013.8 2.1 17
2020-03-16 10:00:00 15.9 8 Sudoeste 17 Oeste 0 1013.3 2.1 25
2020-03-16 09:00:00 15.7 6 Nordeste 26 Este 0 1012.6 1.3 40
2020-03-16 08:00:00 14.9 3 Norte 30 Oeste 0 1011.7 0.5 53
2020-03-16 07:00:00 15.7 12 Oeste 24 Oeste 0 1011.2 -0.6 58
2020-03-16 06:00:00 15.5 8 Oeste 27 Oeste 0 1011.3 -1.2 68
2020-03-16 05:00:00 15.4 14 Oeste 29 Sudoeste 0 1011.2 -1.8 73
2020-03-16 04:00:00 15.8 9 Oeste 21 Oeste 0 1011.8 -2 72
2020-03-16 03:00:00 15.2 9 Oeste 21 Sudoeste 0 1012.5 -1.7 73
2020-03-16 02:00:00 15.6 12 Sudoeste 20 Sudoeste 0 1013 -1.3 72
2020-03-16 01:00:00 13.9 6 Oeste 15 Oeste 0 1013.8 -0.5 77
2020-03-16 00:00:00 13.5 8 Sudoeste 15 Sudoeste 0 1014.2 -0.2 77
2020-03-15 23:00:00 14.4 4 Oeste 9 Oeste 0 1014.3 0.2 76
2020-03-15 22:00:00 15.4 4 Este 9 Este 0 1014.3 0.3 74
2020-03-15 21:00:00 15.6 7 Este 11 Nordeste 0 1014.4 0.3 76
2020-03-15 20:00:00 15.8 7 Este 14 Este 0 1014.1 -0.5 75
2020-03-15 19:00:00 16.2 9 Este 16 Este 0 1014 -1 72
2020-03-15 18:00:00 16.8 9 Este 19 Este 0 1014.1 -1.4 70
2020-03-15 17:00:00 17.2 12 Este 21 Este 0 1014.6 -1.5 69
2020-03-15 16:00:00 17.3 13 Este 23 Este 0 1015 -1.8 68
2020-03-15 15:00:00 17.4 14 Este 24 Este 0 1015.5 -1.8 67
2020-03-15 14:00:00 18.2 16 Este 33 Este 0 1016.1 -1.5 67
2020-03-15 13:00:00 18.8 14 Este 28 Este 0 1016.8 -0.4 65
2020-03-15 12:00:00 17.5 16 Este 28 Este 0 1017.3 0.4 70
2020-03-15 11:00:00 17.7 17 Este 31 Este 0 1017.6 0.8 69
2020-03-15 10:00:00 17 12 Nordeste 24 Nordeste 0 1017.2 0.7 69
2020-03-15 09:00:00 15.9 9 Nordeste 21 Nordeste 0 1016.9 0.6 71
2020-03-15 08:00:00 15.3 8 Nordeste 16 Nordeste 0 1016.8 0.3 71
2020-03-15 07:00:00 15.3 6 Nordeste 19 Nordeste 0 1016.5 -0.4 70
2020-03-15 06:00:00 15.5 8 Nordeste 23 Nordeste 0 1016.3 -1.4 69
2020-03-15 05:00:00 15.4 8 Nordeste 17 Nordeste 0 1016.5 -1.4 72
2020-03-15 04:00:00 15.3 8 Nordeste 27 Nordeste 0 1016.9 -1.2 73
2020-03-15 03:00:00 15.2 10 Nordeste 21 Nordeste 0 1017.7 -0.6 75
2020-03-15 02:00:00 14.8 9 Nordeste 20 Norte 0 1017.9 -0.4 79
2020-03-15 01:00:00 14.4 9 Nordeste 19 Nordeste 0 1018.1 0.2 79
2020-03-15 00:00:00 14.4 9 Nordeste 21 Nordeste 0 1018.3 0.8 78
2020-03-14 23:00:00 14 6 Nordeste 13 Nordeste 0 1018.3 0.8 76
2020-03-14 22:00:00 14.6 8 Este 12 Nordeste 0 1017.9 0.4 75
2020-03-14 21:00:00 14.9 6 Nordeste 12 Este 0 1017.5 0 75
2020-03-14 20:00:00 15.6 5 Nordeste 18 Este 0 1017.5 0.1 73
2020-03-14 19:00:00 16.4 10 Este 16 Este 0 1017.5 -0.2 70
2020-03-14 18:00:00 17.9 8 Este 15 Este 0 1017.5 -0.9 67
2020-03-14 17:00:00 18.7 8 Este 21 Este 0 1017.4 -1.5 66
2020-03-14 16:00:00 18.3 13 Este 21 Este 0 1017.7 -1.7 67
2020-03-14 15:00:00 19 10 Este 20 Este 0 1018.4 -1.3 65
2020-03-14 14:00:00 19.5 12 Este 22 Este 0 1018.9 -0.9 63
2020-03-14 13:00:00 19.5 11 Este 18 Este 0 1019.4 -0.3 61
2020-03-14 12:00:00 18.7 10 Este 20 Este 0 1019.7 0.6 61
2020-03-14 11:00:00 18.8 12 Este 17 Este 0 1019.8 1.2 59
2020-03-14 10:00:00 17.9 11 Este 15 Este 0 1019.7 1.4 62
2020-03-14 09:00:00 16.1 6 Nordeste 13 Nordeste 0 1019.1 1.2 71
2020-03-14 08:00:00 14.3 4 Nordeste 12 Nordeste 0 1018.6 0.8 76
2020-03-14 07:00:00 14.4 4 Norte 15 Nordeste 0 1018.3 0.4 77
2020-03-14 06:00:00 14.6 7 Nordeste 16 Nordeste 0 1017.9 -0.3 78
2020-03-14 05:00:00 14.9 5 Nordeste 14 Nordeste 0 1017.8 -0.5 80
2020-03-14 04:00:00 14.7 6 Nordeste 19 Este 0 1017.9 -0.4 82
2020-03-14 03:00:00 15 5 Nordeste 14 Este 0 1018.2 -0.2 82
2020-03-14 02:00:00 15.3 6 Nordeste 13 Este 0 1018.3 0.3 82
2020-03-14 01:00:00 15.6 6 Nordeste 16 Norte 0 1018.3 0.8 81
2020-03-14 00:00:00 15.8 8 Nordeste 19 Este 0 1018.4 1.4 81
2020-03-13 23:00:00 16.1 6 Nordeste 15 Este 0 1018 1.6 79
2020-03-13 22:00:00 16.1 7 Nordeste 22 Este 0 1017.5 2 78
2020-03-13 21:00:00 16.6 12 Nordeste 25 Este 0 1017 2.3 73
2020-03-13 20:00:00 17.1 12 Nordeste 28 Este 0 1016.4 2.1 64
2020-03-13 19:00:00 18.5 13 Nordeste 27 Este 0 1015.5 1.3 59
2020-03-13 18:00:00 19.8 9 Este 25 Este 0 1014.7 0.1 60
2020-03-13 17:00:00 22.6 15 Este 27 Oeste 0 1014.3 -1 49
2020-03-13 16:00:00 26.4 15 Oeste 32 Noroeste 0 1014.2 -1.3 31
2020-03-13 15:00:00 25.2 13 Oeste 30 Sudoeste 0 1014.6 -1.2 36
2020-03-13 14:00:00 24.2 12 Oeste 28 Sudoeste 0 1015.3 -0.8 38
2020-03-13 13:00:00 24.1 14 Sudoeste 22 Sudoeste 0 1015.5 -0.5 37
2020-03-13 12:00:00 21.9 14 Oeste 22 Oeste 0 1015.8 0.1 41
2020-03-13 11:00:00 20 3 Sudeste 9 Este 0 1016.1 0.9 43
2020-03-13 10:00:00 18.1 5 Este 8 Este 0 1016 0.8 53
2020-03-13 09:00:00 13.8 0 Calma 4 Sudeste 0 1015.7 0.6 70
2020-03-13 08:00:00 12.4 2 Oeste 5 Oeste 0 1015.2 0.3 76
2020-03-13 07:00:00 12.6 0 Calma 4 Oeste 0 1015.2 -0.1 73
2020-03-13 06:00:00 12.9 2 Oeste 5 Oeste 0 1015.1 -0.7 69
2020-03-13 05:00:00 13.3 2 Sudoeste 5 Norte 0 1014.9 -1.5 65
2020-03-13 04:00:00 13.3 2 Oeste 4 Nordeste 0 1015.3 -1.3 62
2020-03-13 03:00:00 13.7 2 Noroeste 7 Oeste 0 1015.8 -1 61
2020-03-13 02:00:00 13.9 2 Oeste 6 Nordeste 0 1016.4 -0.3 62
2020-03-13 01:00:00 14.5 3 Oeste 7 Sudoeste 0 1016.6 0.2 60
2020-03-13 00:00:00 15.2 0 Calma 5 Nordeste 0 1016.8 0.4 54
2020-03-12 23:00:00 16.6 5 Oeste 11 Sudoeste 0 1016.7 0.7 54
2020-03-12 22:00:00 16.7 2 Norte 6 Nordeste 0 1016.4 0.4 51
2020-03-12 21:00:00 17.4 0 Calma 5 Sudoeste 0 1016.4 0.4 52
2020-03-12 20:00:00 18.2 4 Oeste 7 Sudoeste 0 1016 -0.5 43
2020-03-12 19:00:00 21.3 4 Sudoeste 6 Sudoeste 0 1016 -0.8 31
2020-03-12 18:00:00 23.5 4 Sudoeste 9 Sudoeste 0 1016 -1.6 29
2020-03-12 17:00:00 24.4 5 Sudoeste 11 Sudoeste 0 1016.5 -2 31
2020-03-12 16:00:00 24.3 5 Sudoeste 12 Sudoeste 0 1016.8 -2.5 33
2020-03-12 15:00:00 25 6 Sudoeste 12 Sudoeste 0 1017.6 -2 33
2020-03-12 14:00:00 23.6 7 Sudoeste 14 Sudoeste 0 1018.5 -1.3 34
2020-03-12 13:00:00 23.4 4 Sudoeste 9 Sur 0 1019.3 -0.1 40
2020-03-12 12:00:00 21.9 4 Sur 10 Sudoeste 0 1019.6 0.5 43
2020-03-12 11:00:00 20 4 Sudoeste 9 Sudoeste 0 1019.8 1.2 46
2020-03-12 10:00:00 19.1 2 Sur 5 Sur 0 1019.4 1.3 52
2020-03-12 09:00:00 17.3 2 Oeste 11 Oeste 0 1019.1 1.3 57
2020-03-12 08:00:00 16.1 6 Oeste 16 Oeste 0 1018.6 0.6 60
2020-03-12 07:00:00 17 6 Oeste 15 Nordeste 0 1018.1 -0.3 55
2020-03-12 06:00:00 18 6 Nordeste 17 Nordeste 0 1017.8 -1.2 39
2020-03-12 05:00:00 18.5 8 Nordeste 17 Nordeste 0 1018 -1.9 35
2020-03-12 04:00:00 19.5 8 Nordeste 21 Nordeste 0 1018.4 -1.7 32
2020-03-12 03:00:00 17.4 11 Nordeste 18 Nordeste 0 1019 -1.5 38
2020-03-12 02:00:00 14.5 2 Sudoeste 10 Nordeste 0 1019.9 -0.4 61
2020-03-12 01:00:00 15.5 3 Norte 10 Nordeste 0 1020.1 -0.2 51
2020-03-12 00:00:00 15.2 3 Noroeste 6 Noroeste 0 1020.5 0.4 56
2020-03-11 23:00:00 15.2 3 Noroeste 7 Norte 0 1020.3 0.4 58
2020-03-11 22:00:00 15.1 4 Sudoeste 9 Nordeste 0 1020.3 0.5 62
2020-03-11 21:00:00 15.9 0 Calma 9 Oeste 0 1020.1 0.5 57
2020-03-11 20:00:00 16.9 4 Sudoeste 10 Sudoeste 0 1019.9 0.1 56
2020-03-11 19:00:00 19.3 3 Sur 8 Sudoeste 0 1019.8 -0.3 48
2020-03-11 18:00:00 21.4 3 Sudoeste 13 Sudoeste 0 1019.6 -0.7 39
2020-03-11 17:00:00 22.6 4 Sudoeste 12 Sudeste 0 1019.8 -1.4 37
2020-03-11 16:00:00 21 7 Sudeste 29 Este 0 1020.1 -2.1 44
2020-03-11 15:00:00 21.4 19 Este 35 Este 0 1020.3 -2.7 39
2020-03-11 14:00:00 21.4 24 Este 37 Este 0 1021.2 -2.2 37
2020-03-11 13:00:00 20.7 17 Este 32 Este 0 1022.2 -1.3 43
2020-03-11 12:00:00 19.9 17 Este 31 Este 0 1023 -0.2 38
2020-03-11 11:00:00 19.9 16 Este 24 Nordeste 0 1023.4 0.5 42
2020-03-11 10:00:00 19 13 Este 18 Este 0 1023.5 1.2 38
2020-03-11 09:00:00 18 9 Nordeste 16 Nordeste 0 1023.2 1.2 37
2020-03-11 08:00:00 15.3 4 Norte 15 Nordeste 0 1022.9 0.7 39
2020-03-11 07:00:00 16 8 Nordeste 21 Nordeste 0 1022.3 -0.5 33
2020-03-11 06:00:00 16.3 11 Nordeste 23 Nordeste 0 1022 -1.5 33
2020-03-11 05:00:00 16.4 12 Nordeste 23 Nordeste 0 1022.2 -2 32
2020-03-11 04:00:00 16.6 11 Nordeste 21 Nordeste 0 1022.8 -1.6 32
2020-03-11 03:00:00 16.5 10 Nordeste 20 Nordeste 0 1023.5 -1.6 32
2020-03-11 02:00:00 16.4 8 Nordeste 18 Nordeste 0 1024.2 -0.8 33
2020-03-11 01:00:00 16.6 10 Nordeste 22 Nordeste 0 1024.4 -0.6 33
2020-03-11 00:00:00 16.8 10 Nordeste 19 Nordeste 0 1025.1 -0.3 33
2020-03-10 23:00:00 17 9 Nordeste 19 Nordeste 0 1025 -0.1 33
2020-03-10 22:00:00 16.9 11 Nordeste 21 Nordeste 0 1025 -0.3 35
2020-03-10 21:00:00 16.2 6 Nordeste 15 Nordeste 0 1025.4 0.2 39
2020-03-10 20:00:00 16.9 7 Nordeste 22 Este 0 1025.1 -0.2 38
2020-03-10 19:00:00 18.3 14 Este 26 Nordeste 0 1025.3 -0.4 41
2020-03-10 18:00:00 19.5 16 Este 27 Este 0 1025.2 -0.6 38
2020-03-10 17:00:00 20.3 17 Nordeste 27 Este 0 1025.3 0.1 36
2020-03-10 16:00:00 20.8 16 Nordeste 37 Este 0 1025.7 0 49
2020-03-10 15:00:00 21 14 Nordeste 41 Este 0 1025.8 -0.2 50
2020-03-10 14:00:00 19.8 24 Este 38 Este 0 1025.2 -0.2 46
2020-03-10 13:00:00 21.7 9 Este 17 Este 0 1025.7 1.2 39
2020-03-10 12:00:00 20.8 4 Sudeste 11 Sur 0 1026 2.4 50
2020-03-10 11:00:00 20.6 4 Sur 11 Sur 0 1025.4 2.5 50
2020-03-10 10:00:00 19.1 3 Sudoeste 7 Sudeste 0 1024.5 2.4 49
2020-03-10 09:00:00 16.7 0 Calma 11 Norte 0 1023.6 2.2 51
2020-03-10 08:00:00 13.9 4 Norte 10 Nordeste 0 1022.9 1.9 49
2020-03-10 07:00:00 13.8 3 Oeste 10 Sur 0 1022.1 0.9 53
2020-03-10 06:00:00 13.9 3 Norte 10 Nordeste 0 1021.4 -0.7 49
2020-03-10 05:00:00 14 3 Norte 8 Norte 0 1021 -1.1 50
2020-03-10 04:00:00 14.9 3 Norte 10 Oeste 0 1021.2 -1 45
2020-03-10 03:00:00 14.5 4 Oeste 10 Noroeste 0 1022.1 -0.3 50
2020-03-10 02:00:00 15.1 3 Norte 6 Norte 0 1022.1 -0.4 47
2020-03-10 01:00:00 16.2 3 Noroeste 9 Este 0 1022.2 0.1 45
2020-03-10 00:00:00 16.8 6 Nordeste 13 Este 0 1022.4 0.7 46
2020-03-09 23:00:00 17.2 6 Oeste 10 Oeste 0 1022.5 1.1 35
2020-03-09 22:00:00 18.1 5 Oeste 16 Sur 0 1022.1 1.1 37
2020-03-09 21:00:00 17.9 4 Oeste 14 Oeste 0 1021.7 0.8 33
2020-03-09 20:00:00 16.8 3 Sur 8 Este 0 1021.4 0.3 64
2020-03-09 19:00:00 18.2 3 Sudeste 14 Este 0 1021 -0.4 64
2020-03-09 18:00:00 19.8 8 Este 15 Este 0 1020.9 -1.4 59
2020-03-09 17:00:00 19.8 8 Este 14 Este 0 1021.1 -1.8 59
2020-03-09 16:00:00 20.3 8 Este 17 Este 0 1021.4 -2.4 57
2020-03-09 15:00:00 20.4 8 Este 15 Este 0 1022.3 -1.9 54
2020-03-09 14:00:00 20.1 9 Este 15 Este 0 1022.9 -1.2 58
2020-03-09 13:00:00 21.1 5 Este 13 Este 0 1023.8 0 45
2020-03-09 12:00:00 20.7 5 Este 15 Este 0 1024.2 0.7 46
2020-03-09 11:00:00 20 5 Oeste 10 Sudoeste 0 1024.1 1.2 26
2020-03-09 10:00:00 17.8 4 Sudoeste 8 Sudoeste 0 1023.8 1.1 47
2020-03-09 09:00:00 15.2 3 Nordeste 10 Este 0 1023.5 1 51
2020-03-09 08:00:00 12.9 2 Norte 9 Norte 0 1022.9 0.8 55
2020-03-09 07:00:00 12.7 4 Norte 11 Oeste 0 1022.7 0.2 56
2020-03-09 06:00:00 13.4 6 Nordeste 12 Este 0 1022.5 -0.6 58
2020-03-09 05:00:00 12.8 3 Noroeste 18 Nordeste 0 1022.1 -1.3 51
2020-03-09 04:00:00 12.1 5 Norte 10 Este 0 1022.5 -0.6 63
2020-03-09 03:00:00 11.9 2 Noroeste 6 Noroeste 0 1023.1 -0.8 70
2020-03-09 02:00:00 12.1 3 Norte 6 Nordeste 0 1023.4 -0.7 71
2020-03-09 01:00:00 13.3 3 Oeste 9 Nordeste 0 1023.1 -0.8 69
2020-03-09 00:00:00 13.6 0 Calma 8 Este 0 1023.9 -0.3 69
2020-03-08 23:00:00 14.5 3 Nordeste 7 Noroeste 0 1024.1 0.1 66
2020-03-08 22:00:00 13.8 0 Calma 8 Nordeste 0 1023.9 0 72
2020-03-08 21:00:00 14.7 3 Nordeste 9 Este 0 1024.2 0.6 74
2020-03-08 20:00:00 15.5 5 Sudoeste 14 Oeste 0 1024 0.2 71
2020-03-08 19:00:00 17 7 Sudoeste 12 Oeste 0 1023.9 -0.2 66
2020-03-08 18:00:00 19.3 5 Sudoeste 10 Sudoeste 0 1023.6 -0.9 60
2020-03-08 17:00:00 20.4 5 Sudoeste 11 Sudoeste 0 1023.8 -1.3 56
2020-03-08 16:00:00 20.9 5 Sudoeste 12 Sur 0 1024.1 -2 53
2020-03-08 15:00:00 20.9 6 Sur 11 Sudoeste 0 1024.5 -1.8 52
2020-03-08 14:00:00 20.7 5 Sur 11 Sur 0 1025.1 -1.1 49
2020-03-08 13:00:00 19.9 6 Sudoeste 11 Sudoeste 0 1026.1 0.4 50
2020-03-08 12:00:00 19.1 6 Sudoeste 11 Sudoeste 0 1026.3 1 49
2020-03-08 11:00:00 18.9 4 Sur 9 Sur 0 1026.2 1.9 51
2020-03-08 10:00:00 17.3 4 Sudeste 9 Nordeste 0 1025.7 1.4 54
2020-03-08 09:00:00 14 2 Sudoeste 9 Nordeste 0 1025.3 1.1 64
2020-03-08 08:00:00 12.1 4 Norte 11 Nordeste 0 1024.3 0.4 65
2020-03-08 07:00:00 12.2 2 Noroeste 15 Nordeste 0 1024.3 0.3 64
2020-03-08 06:00:00 12.6 5 Norte 18 Nordeste 0 1024.2 -0.1 59
2020-03-08 05:00:00 12 9 Nordeste 21 Nordeste 0 1023.9 -0.6 53
2020-03-08 04:00:00 10.7 2 Noroeste 8 Nordeste 0 1024 -0.1 57
2020-03-08 03:00:00 10.9 2 Oeste 6 Nordeste 0 1024.3 -0.1 59
2020-03-08 02:00:00 11.3 0 Calma 8 Oeste 0 1024.5 -0.1 59
2020-03-08 01:00:00 11.9 3 Noroeste 6 Nordeste 0 1024.1 -0.3 57
2020-03-08 00:00:00 12.7 4 Oeste 7 Oeste 0 1024.4 0.6 57
2020-03-07 23:00:00 12.6 3 Nordeste 7 Nordeste 0 1024.6 1 62
2020-03-07 22:00:00 13.2 2 Noroeste 12 Este 0 1024.4 1.1 62
2020-03-07 21:00:00 14 5 Nordeste 8 Este 0 1023.8 1 58
2020-03-07 20:00:00 15.1 4 Oeste 10 Oeste 0 1023.6 0.7 55
2020-03-07 19:00:00 16.6 6 Sudoeste 12 Sudoeste 0 1023.3 0.2 53
2020-03-07 18:00:00 17.8 4 Sudoeste 9 Sudoeste 0 1022.8 -0.6 48
2020-03-07 17:00:00 18 4 Sudoeste 10 Sur 0 1022.9 -0.7 48
2020-03-07 16:00:00 19.8 4 Sur 9 Sur 0 1023.1 -1 40
2020-03-07 15:00:00 21.4 3 Sur 12 Sudoeste 0 1023.4 -1 38
2020-03-07 14:00:00 20.4 7 Sudoeste 17 Oeste 0 1023.6 -0.7 36
2020-03-07 13:00:00 19.7 9 Sudoeste 16 Sudoeste 0 1024.1 0.3 39
2020-03-07 12:00:00 19.8 4 Sur 14 Sur 0 1024.4 0.9 35
2020-03-07 11:00:00 17.7 4 Sudoeste 10 Sudoeste 0 1024.3 1.5 43
2020-03-07 10:00:00 15.4 3 Sudoeste 6 Sudoeste 0 1023.8 1.4 48
2020-03-07 09:00:00 13.1 0 Calma 6 Nordeste 0 1023.5 1.3 50
2020-03-07 08:00:00 10.6 0 Calma 6 Nordeste 0 1022.8 0.6 56
2020-03-07 07:00:00 11 3 Oeste 7 Norte 0 1022.4 0.1 49
2020-03-07 06:00:00 11.5 4 Noroeste 11 Noroeste 0 1022.2 -0.5 48
2020-03-07 05:00:00 12.4 2 Nordeste 11 Sudeste 0 1022.2 -0.4 58
2020-03-07 04:00:00 13.2 2 Oeste 12 Nordeste 0 1022.3 -0.3 38
2020-03-07 03:00:00 14.5 4 Nordeste 19 Nordeste 0 1022.7 -0.3 37
2020-03-07 02:00:00 14.7 6 Nordeste 18 Oeste 0 1022.6 0 37
2020-03-07 01:00:00 14.7 4 Norte 15 Nordeste 0 1022.6 0.4 38
2020-03-07 00:00:00 14.4 5 Nordeste 18 Nordeste 0 1023 2 42
2020-03-06 23:00:00 14 11 Oeste 32 Sudoeste 0 1022.6 2.4 58
2020-03-06 22:00:00 14.8 16 Oeste 30 Sudoeste 0 1022.2 2.8 54
2020-03-06 21:00:00 15.4 8 Oeste 35 Oeste 0 1021 1.9 47
2020-03-06 20:00:00 16.4 18 Oeste 43 Oeste 0 1020.2 1.4 43
2020-03-06 19:00:00 18.5 17 Oeste 43 Oeste 0 1019.4 0.4 31
2020-03-06 18:00:00 20.2 21 Oeste 45 Oeste 0 1019.1 -0.4 28
2020-03-06 17:00:00 20.7 24 Oeste 50 Oeste 0 1018.8 -1.7 28
2020-03-06 16:00:00 20.7 25 Oeste 47 Sudoeste 0 1019 -1.7 29
2020-03-06 15:00:00 20.7 21 Oeste 60 Oeste 0 1019.5 -1.9 29
2020-03-06 14:00:00 19.8 26 Oeste 50 Sudoeste 0 1020.5 -1.2 32
2020-03-06 13:00:00 18.9 24 Oeste 56 Oeste 0 1020.7 -1.4 34
2020-03-06 12:00:00 18 28 Oeste 58 Oeste 0 1021.4 -0.2 36
2020-03-06 11:00:00 17.9 13 Oeste 32 Oeste 0 1021.7 1 38
2020-03-06 10:00:00 15.3 12 Oeste 28 Oeste 0 1022.1 1.8 50
2020-03-06 09:00:00 13 17 Oeste 29 Oeste 0 1021.6 1.8 52
2020-03-06 08:00:00 11.4 7 Oeste 18 Oeste 0 1020.7 1.4 52
2020-03-06 07:00:00 10.8 6 Oeste 15 Oeste 0 1020.3 1 51
2020-03-06 06:00:00 12 8 Oeste 17 Oeste 0 1019.8 0 50
2020-03-06 05:00:00 12.3 8 Oeste 28 Oeste 0 1019.3 -0.4 50
2020-03-06 04:00:00 13.3 5 Oeste 21 Oeste 0 1019.3 -0.1 47
2020-03-06 03:00:00 14.1 5 Oeste 14 Nordeste 0 1019.8 0.6 44
2020-03-06 02:00:00 15.2 11 Oeste 26 Oeste 0 1019.7 0.4 41
2020-03-06 01:00:00 15.5 6 Oeste 28 Oeste 0 1019.4 0.3 41
2020-03-06 00:00:00 16 17 Oeste 33 Oeste 0 1019.2 1.3 45
2020-03-05 23:00:00 15.6 20 Oeste 43 Oeste 0 1019.3 1.7 54
2020-03-05 22:00:00 16 23 Oeste 40 Sudoeste 0 1019.1 2.4 55
2020-03-05 21:00:00 16.7 21 Oeste 42 Sudoeste 0 1017.9 1.2 50
2020-03-05 20:00:00 17.8 10 Oeste 38 Oeste 0 1017.6 1.2 36
2020-03-05 19:00:00 18 14 Oeste 44 Oeste 0 1016.7 0.1 47
2020-03-05 18:00:00 18.8 15 Oeste 35 Oeste 0 1016.7 0.1 48
2020-03-05 17:00:00 19.1 18 Oeste 41 Sudoeste 0 1016.4 -- 56
2020-03-05 16:00:00 18.3 20 Oeste 42 Oeste 0 1016.6 -- 57
2020-03-05 15:00:00 18.9 15 Oeste -- -- -- 1016.6 -- 54
2020-03-05 14:00:00 -- -- -- -- -- -- -- -- --
2020-03-05 13:00:00 -- -- -- -- -- -- -- -- --
2020-03-05 12:00:00 -- -- -- -- -- -- -- -- --
2020-03-05 11:00:00 -- -- -- -- -- -- -- -- --
2020-03-05 10:00:00 -- -- -- -- -- -- -- -- --
2020-03-05 09:00:00 -- -- -- -- -- -- -- -- --
2020-03-05 08:00:00 -- -- -- -- -- -- -- -- --
2020-03-05 07:00:00 -- -- -- -- -- -- -- -- --
2020-03-05 06:00:00 -- -- -- -- -- -- -- -- --
2020-03-05 05:00:00 -- -- -- -- -- -- -- -- --
2020-03-05 04:00:00 -- -- -- -- -- -- -- -- --
2020-03-05 03:00:00 -- -- -- -- -- -- -- -- --
2020-03-05 02:00:00 -- -- -- -- -- -- -- -- --
2020-03-05 01:00:00 -- -- -- -- -- -- -- -- --
2020-03-05 00:00:00 -- -- -- -- -- -- -- -- --
2020-03-04 23:00:00 -- -- -- -- -- -- -- -- --
2020-03-04 22:00:00 -- -- -- -- -- -- -- -- --
2020-03-04 21:00:00 -- -- -- -- -- -- -- -- --
2020-03-04 20:00:00 -- -- -- -- -- -- -- -- --
2020-03-04 19:00:00 -- -- -- -- -- -- -- -- --
2020-03-04 18:00:00 -- -- -- -- -- -- -- -- --
2020-03-04 17:00:00 -- -- -- -- -- -- -- -- --
2020-03-04 16:00:00 -- -- -- -- -- -- -- -- --
2020-03-04 15:00:00 -- -- -- -- -- -- -- -- --
2020-03-04 14:00:00 -- -- -- -- -- -- -- -- --
2020-03-04 13:00:00 -- -- -- -- -- -- -- -- --
2020-03-04 12:00:00 -- -- -- -- -- -- -- -- --
2020-03-04 11:00:00 -- -- -- -- -- -- -- -- --
2020-03-04 10:00:00 -- -- -- -- -- -- -- -- --
2020-03-04 09:00:00 -- -- -- -- -- -- -- -- --
2020-03-04 08:00:00 -- -- -- -- -- -- -- -- --
2020-03-04 07:00:00 -- -- -- -- -- -- -- -- --
2020-03-04 06:00:00 -- -- -- -- -- -- -- -- --
2020-03-04 05:00:00 -- -- -- -- -- -- -- -- --
2020-03-04 04:00:00 -- -- -- -- -- -- -- -- --
2020-03-04 03:00:00 -- -- -- -- -- -- -- -- --
2020-03-04 02:00:00 -- -- -- -- -- -- -- -- --
2020-03-04 01:00:00 -- -- -- -- -- -- -- -- --
2020-03-04 00:00:00 -- -- -- -- -- -- -- -- --
2020-03-03 23:00:00 -- -- -- -- -- -- -- -- --
2020-03-03 22:00:00 -- -- -- -- -- -- -- -- --
2020-03-03 21:00:00 -- -- -- -- -- -- -- -- --
2020-03-03 20:00:00 -- -- -- -- -- -- -- -- --
2020-03-03 19:00:00 -- -- -- -- -- -- -- -- --
2020-03-03 18:00:00 -- -- -- -- -- -- -- -- --
2020-03-03 17:00:00 -- -- -- -- -- -- -- -- --
2020-03-03 16:00:00 -- -- -- -- -- -- -- -- --
2020-03-03 15:00:00 -- -- -- -- -- -- -- -- --
2020-03-03 14:00:00 -- -- -- -- -- -- -- -- --
2020-03-03 13:00:00 -- -- -- -- -- -- -- -- --
2020-03-03 12:00:00 -- -- -- -- -- -- -- -- --
2020-03-03 11:00:00 -- -- -- -- -- -- -- -- --
2020-03-03 10:00:00 -- -- -- -- -- -- -- -- --
2020-03-03 09:00:00 -- -- -- -- -- -- -- -- --
2020-03-03 08:00:00 -- -- -- -- -- -- -- -- --
2020-03-03 07:00:00 -- -- -- -- -- -- -- -- --
2020-03-03 06:00:00 -- -- -- -- -- -- -- -- --
2020-03-03 05:00:00 -- -- -- -- -- -- -- -- --
2020-03-03 04:00:00 -- -- -- -- -- -- -- -- --
2020-03-03 03:00:00 -- -- -- -- -- -- -- -- --
2020-03-03 02:00:00 -- -- -- -- -- -- -- -- --
2020-03-03 01:00:00 -- -- -- -- -- -- -- -- --
2020-03-03 00:00:00 -- -- -- -- -- -- -- -- --
2020-03-02 23:00:00 -- -- -- -- -- -- -- -- --
2020-03-02 22:00:00 -- -- -- -- -- -- -- -- --
2020-03-02 21:00:00 -- -- -- -- -- -- -- -- --
2020-03-02 20:00:00 -- -- -- -- -- -- -- -- --
2020-03-02 19:00:00 -- -- -- -- -- -- -- -- --
2020-03-02 18:00:00 -- -- -- -- -- -- -- -- --
2020-03-02 17:00:00 -- -- -- -- -- -- -- -- --
2020-03-02 16:00:00 -- -- -- -- -- -- -- -- --
2020-03-02 15:00:00 -- -- -- -- -- -- -- -- --
2020-03-02 14:00:00 -- -- -- -- -- -- -- -- --
2020-03-02 13:00:00 -- -- -- -- -- -- -- -- --
2020-03-02 12:00:00 -- -- -- -- -- -- -- -- --
2020-03-02 11:00:00 -- -- -- -- -- -- -- -- --
2020-03-02 10:00:00 -- -- -- -- -- -- -- -- --
2020-03-02 09:00:00 -- -- -- -- -- -- -- -- --
2020-03-02 08:00:00 -- -- -- -- -- -- -- -- --
2020-03-02 07:00:00 -- -- -- -- -- -- -- -- --
2020-03-02 06:00:00 -- -- -- -- -- -- -- -- --
2020-03-02 05:00:00 -- -- -- -- -- -- -- -- --
2020-03-02 04:00:00 -- -- -- -- -- -- -- -- --
2020-03-02 03:00:00 -- -- -- -- -- -- -- -- --
2020-03-02 02:00:00 -- -- -- -- -- -- -- -- --
2020-03-02 01:00:00 -- -- -- -- -- -- -- -- --
2020-03-02 00:00:00 -- -- -- -- -- -- -- -- --
2020-03-01 23:00:00 -- -- -- -- -- -- -- -- --
2020-03-01 22:00:00 -- -- -- -- -- -- -- -- --
2020-03-01 21:00:00 -- -- -- -- -- -- -- -- --
2020-03-01 20:00:00 -- -- -- -- -- -- -- -- --
2020-03-01 19:00:00 -- -- -- -- -- -- -- -- --
2020-03-01 18:00:00 20.4 20 Oeste 45 Oeste 0 1017.3 -0.6 40
2020-03-01 17:00:00 21.7 23 Sudoeste 42 Oeste 0 1017.3 -1.7 35
2020-03-01 16:00:00 21.9 21 Oeste 41 Oeste 0 1017.5 -2.4 38
2020-03-01 15:00:00 20 14 Oeste 40 Sudoeste 0 1017.9 -2.5 45
2020-03-01 14:00:00 20.9 22 Oeste 50 Oeste 0 1019 -1 45
2020-03-01 13:00:00 19.7 14 Oeste 32 Oeste 0 1019.9 0.1 43
2020-03-01 12:00:00 18.3 14 Oeste 29 Oeste 0 1020.4 1 54
2020-03-01 11:00:00 18.2 13 Oeste 31 Oeste 0 1020 1.2 50
2020-03-01 10:00:00 16.7 14 Oeste 32 Oeste 0 1019.8 1.3 55
2020-03-01 09:00:00 15.1 12 Oeste 33 Oeste 0 1019.4 1.4 60
2020-03-01 08:00:00 14.7 15 Oeste 33 Oeste 0 1018.8 1.2 60
2020-03-01 07:00:00 15.3 21 Oeste 35 Oeste 0 1018.5 1 57
2020-03-01 06:00:00 15.7 21 Oeste 35 Sudoeste 0 1018 0.3 58
2020-03-01 05:00:00 16.7 13 Oeste 40 Oeste 0 1017.6 -0.3 56
2020-03-01 04:00:00 16.5 18 Oeste 36 Oeste 0 1017.5 -1.3 60
2020-03-01 03:00:00 16.4 16 Oeste 34 Oeste 0 1017.7 -1.2 72
2020-03-01 02:00:00 16 17 Oeste 34 Oeste 0 1017.9 -1 78
2020-03-01 01:00:00 15.9 12 Sudoeste 29 Oeste 0 1018.8 -0.1 77
2020-03-01 00:00:00 16.4 13 Oeste 40 Oeste 0 1018.9 0.2 71
2020-02-29 23:00:00 16.4 17 Oeste 42 Sudoeste 0 1018.9 0.8 68
2020-02-29 22:00:00 16.5 20 Oeste 41 Sudoeste 0 1018.9 1.3 66
2020-02-29 21:00:00 16.5 19 Oeste 44 Oeste 0 1018.7 2.2 64
2020-02-29 20:00:00 16.6 18 Oeste 39 Oeste 0 1018.1 1.7 63
2020-02-29 19:00:00 17.3 25 Oeste 59 Sudoeste 0 1017.6 1.1 57
2020-02-29 18:00:00 18.8 24 Oeste 54 Sudoeste 0 1016.5 -0.2 50
2020-02-29 17:00:00 20.6 19 Oeste 52 Oeste 0 1016.4 -0.8 42
2020-02-29 16:00:00 20.6 29 Sudoeste 65 Oeste 0 1016.5 -1.5 43
2020-02-29 15:00:00 21.7 23 Oeste 58 Sudoeste 0 1016.7 -1.5 39
2020-02-29 14:00:00 20.4 30 Sudoeste 52 Oeste 0 1017.2 -1.3 43
2020-02-29 13:00:00 20.1 27 Oeste 55 Oeste 0 1018 0.1 42
2020-02-29 12:00:00 19.6 24 Oeste 48 Oeste 0 1018.2 0.6 45
2020-02-29 11:00:00 19 20 Oeste 48 Oeste 0 1018.5 1.2 45
2020-02-29 10:00:00 17.9 19 Oeste 47 Oeste 0 1017.9 0.7 43
2020-02-29 09:00:00 16.4 16 Oeste 36 Sudoeste 0 1017.6 0.3 38
2020-02-29 08:00:00 12.3 3 Oeste -- -- 0 1017.3 0.2 52
2020-02-29 07:00:00 10.4 3 Este 8 Oeste 0 1017.2 -0.4 59
2020-02-29 06:00:00 10.5 4 Norte 9 Nordeste 0 1017.3 -1 61
2020-02-29 05:00:00 10.3 4 Nordeste 12 Sudoeste 0 1017.1 -1.5 69
2020-02-29 04:00:00 10.1 3 Noroeste 8 Oeste 0 1017.6 -1.1 72
2020-02-29 03:00:00 10.3 0 Calma 3 Oeste 0 1018.3 -0.7 77
2020-02-29 02:00:00 10.4 2 Oeste 4 Oeste 0 1018.6 -0.5 79
2020-02-29 01:00:00 11.5 0 Calma 2 Sudeste 0 1018.7 -0.3 80
2020-02-29 00:00:00 11.8 0 Calma 3 Oeste 0 1019 0.4 79